Time;durP1;ratioP1;P1;durP2;ratioP2;P2;SDS_P1;SDS_P2;PMS_P1;PMS_P2;Temp;Humidity;BMP_temperature;BMP_pressure;BME280_temperature;BME280_humidity;BME280_pressure;Samples;Min_cycle;Max_cycle;Signal;HPM_P1;HPM_P2
2021/09/14 00:01:47;;;;;;;12.50;6.20;;;17.50;99.90;;;;;;5057492;28;20596;-63
2021/09/14 00:04:14;;;;;;;5.70;5.20;;;17.50;99.90;;;;;;5054195;28;20483;-64
2021/09/14 00:06:41;;;;;;;5.87;5.27;;;17.50;99.90;;;;;;5058447;28;20462;-63
2021/09/14 00:09:09;;;;;;;8.43;5.43;;;17.60;99.90;;;;;;5064979;28;20487;-64
2021/09/14 00:11:39;;;;;;;5.10;4.60;;;17.50;99.90;;;;;;5066645;28;20456;-64
2021/09/14 00:14:06;;;;;;;5.33;4.83;;;17.50;99.90;;;;;;5066119;28;20470;-63
2021/09/14 00:16:34;;;;;;;5.10;4.63;;;17.50;99.90;;;;;;5067958;28;20470;-63
2021/09/14 00:19:00;;;;;;;6.30;5.40;;;17.60;99.90;;;;;;5058943;28;20467;-63
2021/09/14 00:21:27;;;;;;;4.97;4.50;;;17.60;99.90;;;;;;5067156;28;20475;-63
2021/09/14 00:23:54;;;;;;;5.70;4.20;;;17.50;99.90;;;;;;5059778;28;20473;-63
2021/09/14 00:26:21;;;;;;;4.90;4.40;;;17.60;99.90;;;;;;5061579;28;20470;-63
2021/09/14 00:28:49;;;;;;;5.17;4.57;;;17.60;99.90;;;;;;5062393;28;20475;-63
2021/09/14 00:31:16;;;;;;;5.43;4.80;;;17.60;99.90;;;;;;5061354;28;20800;-63
2021/09/14 00:33:43;;;;;;;5.37;4.87;;;17.60;99.90;;;;;;5060664;28;20800;-63
2021/09/14 00:36:10;;;;;;;5.93;5.13;;;17.60;99.90;;;;;;5062074;28;20483;-64
2021/09/14 00:38:36;;;;;;;9.07;5.27;;;17.60;99.90;;;;;;5052550;28;20463;-64
2021/09/14 00:41:03;;;;;;;5.20;4.70;;;17.60;99.90;;;;;;5052548;28;20809;-64
2021/09/14 00:43:30;;;;;;;6.27;5.33;;;17.60;99.90;;;;;;5051872;28;20822;-64
2021/09/14 00:45:58;;;;;;;6.20;5.40;;;17.70;99.90;;;;;;5052235;28;20485;-64
2021/09/14 00:48:25;;;;;;;7.47;6.80;;;17.60;99.90;;;;;;5051900;28;20471;-63
2021/09/14 00:50:52;;;;;;;6.70;6.20;;;17.70;99.90;;;;;;5052085;28;20474;-64
2021/09/14 00:53:20;;;;;;;6.20;5.60;;;17.60;99.90;;;;;;5051653;28;20473;-64
2021/09/14 00:55:47;;;;;;;6.10;5.20;;;17.70;99.90;;;;;;5052536;28;20470;-63
2021/09/14 00:58:14;;;;;;;5.53;5.03;;;17.70;99.90;;;;;;5053789;28;20467;-64
2021/09/14 01:00:41;;;;;;;4.90;4.50;;;17.70;99.90;;;;;;5053491;28;20459;-65
2021/09/14 01:03:09;;;;;;;6.40;5.80;;;17.70;99.90;;;;;;5053803;28;20463;-64
2021/09/14 01:05:36;;;;;;;5.07;4.57;;;17.70;99.90;;;;;;5053171;28;20497;-64
2021/09/14 01:08:03;;;;;;;6.63;5.63;;;17.70;99.90;;;;;;5053735;28;20467;-64
2021/09/14 01:10:30;;;;;;;6.23;5.63;;;17.70;99.90;;;;;;5053183;28;20471;-64
2021/09/14 01:12:57;;;;;;;5.23;4.57;;;17.70;99.90;;;;;;5053658;28;20817;-64
2021/09/14 01:15:25;;;;;;;5.03;4.37;;;17.70;99.90;;;;;;5053018;28;20501;-64
2021/09/14 01:17:52;;;;;;;5.33;4.47;;;17.70;99.90;;;;;;5053597;28;20478;-64
2021/09/14 01:20:21;;;;;;;6.37;4.80;;;17.70;99.90;;;;;;5052615;28;20945;-64
2021/09/14 01:22:50;;;;;;;5.30;4.40;;;17.70;99.90;;;;;;5053440;28;20960;-64
2021/09/14 01:25:20;;;;;;;5.03;4.60;;;17.70;99.90;;;;;;5052880;28;20829;-63
2021/09/14 01:27:47;;;;;;;4.93;4.43;;;17.70;99.90;;;;;;5053095;28;20860;-64
2021/09/14 01:30:18;;;;;;;5.20;4.70;;;17.70;99.90;;;;;;5053103;28;20973;-64
2021/09/14 01:32:46;;;;;;;4.83;4.43;;;17.60;99.90;;;;;;5052886;28;20550;-63
2021/09/14 01:35:15;;;;;;;8.23;4.90;;;17.70;99.90;;;;;;5053080;28;20804;-64
2021/09/14 01:37:42;;;;;;;8.77;5.70;;;17.60;99.90;;;;;;5052660;28;20800;-64
2021/09/14 01:40:11;;;;;;;4.77;4.30;;;17.60;99.90;;;;;;5053213;28;20463;-64
2021/09/14 01:42:39;;;;;;;4.97;4.60;;;17.60;99.90;;;;;;5052503;28;20975;-64
2021/09/14 01:45:07;;;;;;;4.73;4.13;;;17.50;99.90;;;;;;5053034;28;20459;-64
2021/09/14 01:47:35;;;;;;;5.97;5.27;;;17.50;99.90;;;;;;5052437;28;20474;-64
2021/09/14 01:50:02;;;;;;;4.90;4.40;;;17.50;99.90;;;;;;5052772;28;20483;-64
2021/09/14 01:52:29;;;;;;;6.97;4.50;;;17.50;99.90;;;;;;5052338;28;20463;-64
2021/09/14 01:54:56;;;;;;;5.13;4.73;;;17.50;99.90;;;;;;5053006;28;20460;-64
2021/09/14 01:57:27;;;;;;;7.73;4.60;;;17.50;99.90;;;;;;5052381;28;20473;-64
2021/09/14 01:59:56;;;;;;;6.73;4.50;;;17.40;99.90;;;;;;5052729;28;20470;-64
2021/09/14 02:02:33;;;;;;;5.40;4.30;;;17.40;99.90;;;;;;5052356;28;20478;-64
2021/09/14 02:05:03;;;;;;;4.30;3.70;;;17.40;99.90;;;;;;5052713;28;20521;-63
2021/09/14 02:07:42;;;;;;;7.77;5.53;;;17.40;99.90;;;;;;5052065;28;20479;-64
2021/09/14 02:24:17;;;;;;;6.13;5.63;;;17.30;99.90;;;;;;5052454;28;20501;-64
2021/09/14 02:43:25;;;;;;;6.20;5.43;;;17.10;99.90;;;;;;5042868;28;20976;-64
2021/09/14 02:58:37;;;;;;;7.37;5.07;;;17.00;99.90;;;;;;5056700;28;20458;-64
2021/09/14 02:59:45;;;;;;;7.70;5.07;;;17.00;99.90;;;;;;5055845;28;20521;-63
2021/09/14 03:02:13;;;;;;;7.40;5.13;;;17.00;99.90;;;;;;5056063;28;20463;-64
2021/09/14 03:04:40;;;;;;;8.00;4.77;;;17.00;99.90;;;;;;5055550;28;20230;-64
2021/09/14 03:07:07;;;;;;;5.73;4.43;;;17.00;99.90;;;;;;5056041;28;20458;-64
2021/09/14 03:09:34;;;;;;;5.80;5.20;;;17.00;99.90;;;;;;5055847;28;20501;-64
2021/09/14 03:12:01;;;;;;;5.93;4.73;;;17.00;99.90;;;;;;5055424;28;21288;-64
2021/09/14 03:14:27;;;;;;;6.33;4.10;;;17.00;99.90;;;;;;5055969;28;20478;-64
2021/09/14 03:16:54;;;;;;;5.97;5.43;;;17.00;99.90;;;;;;5055201;28;20520;-64
2021/09/14 03:19:22;;;;;;;7.10;6.50;;;17.00;99.90;;;;;;5055773;28;20471;-62
2021/09/14 03:21:49;;;;;;;9.13;6.00;;;17.00;99.90;;;;;;5055168;28;20477;-63
2021/09/14 03:24:16;;;;;;;6.10;5.33;;;17.00;99.90;;;;;;5055589;28;20567;-63
2021/09/14 03:26:43;;;;;;;5.90;5.30;;;17.00;99.90;;;;;;5055250;28;20467;-63
2021/09/14 03:29:09;;;;;;;5.37;4.83;;;17.00;99.90;;;;;;5055566;28;20478;-63
2021/09/14 03:31:38;;;;;;;4.90;4.40;;;17.00;99.90;;;;;;5055036;28;20805;-63
2021/09/14 03:34:05;;;;;;;4.30;4.00;;;17.00;99.90;;;;;;5054216;28;20457;-63
2021/09/14 03:36:33;;;;;;;5.13;4.73;;;17.00;99.90;;;;;;5053991;28;20812;-64
2021/09/14 03:39:00;;;;;;;6.37;4.80;;;17.00;99.90;;;;;;5053694;28;20477;-64
2021/09/14 03:41:27;;;;;;;4.87;4.00;;;17.00;99.90;;;;;;5054378;28;20467;-64
2021/09/14 03:43:54;;;;;;;5.97;5.37;;;17.00;99.90;;;;;;5053510;28;20598;-63
2021/09/14 03:46:21;;;;;;;6.97;5.77;;;17.00;99.90;;;;;;5053969;28;21128;-64
2021/09/14 03:48:48;;;;;;;8.00;5.43;;;16.90;99.90;;;;;;5053205;28;20478;-63
2021/09/14 03:51:14;;;;;;;5.83;5.27;;;16.90;99.90;;;;;;5053902;28;20459;-64
2021/09/14 03:53:43;;;;;;;5.60;5.07;;;16.90;99.90;;;;;;5053858;28;20463;-64
2021/09/14 03:56:10;;;;;;;5.67;4.70;;;16.90;99.90;;;;;;5053741;28;20559;-64
2021/09/14 03:58:37;;;;;;;9.37;5.20;;;17.00;99.90;;;;;;5053758;28;21272;-63
2021/09/14 04:01:03;;;;;;;5.43;4.93;;;17.00;99.90;;;;;;5053376;28;20459;-63
2021/09/14 04:03:39;;;;;;;6.33;5.00;;;16.90;99.90;;;;;;5054005;28;20474;-63
2021/09/14 04:06:23;;;;;;;7.70;5.10;;;16.90;99.90;;;;;;5053363;28;20459;-64
2021/09/14 04:08:52;;;;;;;8.80;6.90;;;16.90;99.90;;;;;;5053197;28;20475;-63
2021/09/14 04:11:21;;;;;;;7.80;6.53;;;16.90;99.90;;;;;;5053675;28;20784;-63
2021/09/14 04:13:48;;;;;;;7.60;5.90;;;16.90;99.90;;;;;;5053332;28;20483;-63
2021/09/14 04:16:15;;;;;;;10.03;5.90;;;16.90;99.90;;;;;;5053477;28;20473;-63
2021/09/14 04:18:42;;;;;;;8.40;5.97;;;16.90;99.90;;;;;;5053529;28;20569;-64
2021/09/14 04:21:08;;;;;;;6.00;5.00;;;16.80;99.90;;;;;;5053198;28;20467;-64
2021/09/14 04:23:35;;;;;;;6.40;5.30;;;16.80;99.90;;;;;;5053453;28;20969;-64
2021/09/14 04:26:06;;;;;;;4.90;4.40;;;16.80;99.90;;;;;;5053080;28;20474;-64
2021/09/14 04:28:33;;;;;;;7.77;5.33;;;16.80;99.90;;;;;;5053372;28;20471;-63
2021/09/14 04:33:41;;;;;;;5.30;4.80;;;16.80;99.90;;;;;;5074728;27;20565;-63
2021/09/14 04:36:07;;;;;;;4.80;4.40;;;16.70;99.90;;;;;;5070163;28;20459;-63
2021/09/14 04:38:36;;;;;;;6.73;5.60;;;16.70;99.90;;;;;;5074789;28;20821;-64
2021/09/14 04:41:03;;;;;;;6.80;5.83;;;16.70;99.90;;;;;;5089664;28;20466;-63
2021/09/14 04:43:29;;;;;;;6.73;5.90;;;16.70;99.90;;;;;;5090286;28;20462;-63
2021/09/14 04:45:56;;;;;;;7.20;5.40;;;16.70;99.90;;;;;;5089607;28;20468;-63
2021/09/14 04:48:23;;;;;;;8.30;6.27;;;16.70;99.90;;;;;;5089951;28;20788;-64
2021/09/14 04:50:52;;;;;;;6.17;5.57;;;16.70;99.90;;;;;;5089652;28;20458;-64
2021/09/14 04:53:19;;;;;;;7.37;6.67;;;16.70;99.90;;;;;;5090045;28;20462;-63
2021/09/14 04:55:46;;;;;;;6.93;6.23;;;16.70;99.90;;;;;;5089982;28;20466;-63
2021/09/14 04:58:13;;;;;;;7.03;6.30;;;16.70;99.90;;;;;;5089380;28;20803;-64
2021/09/14 05:00:40;;;;;;;7.00;6.40;;;16.70;99.90;;;;;;5089773;28;20465;-64
2021/09/14 05:03:07;;;;;;;6.87;5.77;;;16.70;99.90;;;;;;5089347;28;20471;-64
2021/09/14 05:05:33;;;;;;;7.10;5.93;;;16.70;99.90;;;;;;5089685;28;20467;-64
2021/09/14 05:08:01;;;;;;;7.47;6.67;;;16.60;99.90;;;;;;5089120;28;20820;-64
2021/09/14 05:10:29;;;;;;;8.40;5.80;;;16.70;99.90;;;;;;5089638;28;20477;-64
2021/09/14 05:12:56;;;;;;;9.70;6.30;;;16.60;99.90;;;;;;5089158;28;20991;-63
2021/09/14 05:15:23;;;;;;;7.93;7.13;;;16.60;99.90;;;;;;5089582;28;20488;-63
2021/09/14 05:17:49;;;;;;;14.10;7.70;;;16.60;99.90;;;;;;5089515;28;20977;-63
2021/09/14 05:20:16;;;;;;;7.83;7.00;;;16.70;99.90;;;;;;5088749;28;20465;-64
2021/09/14 05:22:43;;;;;;;7.13;6.47;;;16.60;99.90;;;;;;5089337;28;20476;-64
2021/09/14 05:25:12;;;;;;;7.30;6.47;;;16.70;99.90;;;;;;5089055;28;21020;-62
2021/09/14 05:27:39;;;;;;;8.57;6.70;;;16.70;99.90;;;;;;5089275;28;20977;-63
2021/09/14 05:30:07;;;;;;;7.63;6.83;;;16.70;99.90;;;;;;5088638;28;20472;-64
2021/09/14 05:32:35;;;;;;;6.03;5.53;;;16.70;99.90;;;;;;5089005;28;20457;-63
2021/09/14 05:35:02;;;;;;;6.30;5.70;;;16.70;99.90;;;;;;5088598;28;20480;-63
2021/09/14 05:37:29;;;;;;;7.63;5.73;;;16.70;99.90;;;;;;5089132;28;20800;-63
2021/09/14 05:39:56;;;;;;;6.00;5.50;;;16.70;99.90;;;;;;5088526;28;20477;-63
2021/09/14 05:42:24;;;;;;;6.80;5.67;;;16.70;99.90;;;;;;5088824;28;20499;-63
2021/09/14 05:44:51;;;;;;;7.13;6.30;;;16.70;99.90;;;;;;5076424;28;20980;-63
2021/09/14 05:47:17;;;;;;;9.67;7.80;;;16.70;99.90;;;;;;5075018;28;20454;-63
2021/09/14 05:49:44;;;;;;;10.07;6.57;;;16.80;99.90;;;;;;5075233;28;20474;-63
2021/09/14 05:52:11;;;;;;;8.30;7.27;;;16.80;99.90;;;;;;5074693;28;20474;-64
2021/09/14 05:54:38;;;;;;;9.97;8.30;;;16.80;99.90;;;;;;5075474;28;20466;-63
2021/09/14 05:57:05;;;;;;;11.80;7.20;;;16.80;99.90;;;;;;5074829;28;20986;-63
2021/09/14 05:59:33;;;;;;;13.27;7.90;;;16.90;99.90;;;;;;5075213;28;20489;-63
2021/09/14 06:02:00;;;;;;;10.37;6.60;;;16.80;99.90;;;;;;5074818;28;20462;-63
2021/09/14 06:04:27;;;;;;;8.27;6.87;;;16.80;99.90;;;;;;5074879;28;20500;-63
2021/09/14 06:06:53;;;;;;;10.20;6.50;;;16.80;99.90;;;;;;5075088;28;20970;-64
2021/09/14 06:09:20;;;;;;;10.43;7.13;;;16.90;99.90;;;;;;5074619;28;20481;-64
2021/09/14 06:11:47;;;;;;;7.87;6.37;;;16.90;99.90;;;;;;5074944;28;20811;-64
2021/09/14 06:14:14;;;;;;;6.37;5.73;;;16.90;99.90;;;;;;5074505;28;20462;-64
2021/09/14 06:16:42;;;;;;;6.93;6.20;;;16.90;99.90;;;;;;5074917;28;20493;-64
2021/09/14 06:19:09;;;;;;;9.10;5.40;;;17.00;99.90;;;;;;5074293;28;20481;-64
2021/09/14 06:21:37;;;;;;;6.90;5.40;;;17.00;99.90;;;;;;5074814;28;20466;-64
2021/09/14 06:24:05;;;;;;;6.90;5.50;;;17.00;99.90;;;;;;5074288;28;20855;-64
2021/09/14 06:26:33;;;;;;;5.27;4.73;;;17.10;99.90;;;;;;5074641;28;20485;-64
2021/09/14 06:29:00;;;;;;;7.40;4.53;;;17.10;99.90;;;;;;5074225;28;20960;-64
2021/09/14 06:31:27;;;;;;;6.33;5.30;;;17.20;99.90;;;;;;5074274;28;20473;-65
2021/09/14 06:33:55;;;;;;;5.30;4.80;;;17.20;99.90;;;;;;5074425;28;20459;-64
2021/09/14 06:36:22;;;;;;;5.87;5.27;;;17.30;99.90;;;;;;5074160;28;20461;-64
2021/09/14 06:38:49;;;;;;;4.67;4.23;;;17.30;99.90;;;;;;5074439;28;20478;-64
2021/09/14 06:41:16;;;;;;;8.93;4.63;;;17.40;99.90;;;;;;5073966;28;20485;-64
2021/09/14 06:43:42;;;;;;;6.67;5.20;;;17.40;99.90;;;;;;5074528;28;20488;-64
2021/09/14 06:46:09;;;;;;;6.33;4.80;;;17.50;99.90;;;;;;5073783;28;20462;-64
2021/09/14 06:48:36;;;;;;;8.87;5.30;;;17.60;99.90;;;;;;5074389;28;20462;-64
2021/09/14 06:51:05;;;;;;;6.90;5.60;;;17.60;99.90;;;;;;5073713;28;20466;-64
2021/09/14 06:53:32;;;;;;;5.17;4.70;;;17.70;99.90;;;;;;5074226;28;20459;-64
2021/09/14 06:55:58;;;;;;;7.50;4.37;;;17.70;99.90;;;;;;5073289;28;20503;-64
2021/09/14 06:58:25;;;;;;;9.70;5.80;;;17.80;99.90;;;;;;5073741;28;20465;-65
2021/09/14 07:00:53;;;;;;;8.23;5.40;;;17.80;99.90;;;;;;5074048;28;21108;-64
2021/09/14 07:03:20;;;;;;;8.60;5.37;;;17.90;99.90;;;;;;5073685;28;20544;-63
2021/09/14 07:05:47;;;;;;;7.13;4.87;;;17.90;99.90;;;;;;5073855;28;20477;-63
2021/09/14 07:08:15;;;;;;;5.20;4.70;;;18.00;99.90;;;;;;5073239;28;20466;-64
2021/09/14 07:10:42;;;;;;;5.80;5.20;;;18.10;99.90;;;;;;5073912;28;20466;-63
2021/09/14 07:13:09;;;;;;;9.63;3.77;;;18.10;99.90;;;;;;5073301;28;20488;-64
2021/09/14 07:15:36;;;;;;;5.30;3.93;;;18.20;99.90;;;;;;5073728;28;20469;-63
2021/09/14 07:18:02;;;;;;;5.17;4.23;;;18.20;99.90;;;;;;5073329;28;20565;-64
2021/09/14 07:20:29;;;;;;;7.90;4.07;;;18.30;99.90;;;;;;5073569;28;20462;-64
2021/09/14 07:22:56;;;;;;;7.50;4.07;;;18.30;99.90;;;;;;5073494;28;20462;-64
2021/09/14 07:25:24;;;;;;;4.90;3.87;;;18.30;99.90;;;;;;5073165;28;20471;-63
2021/09/14 07:27:51;;;;;;;3.80;3.40;;;18.40;99.90;;;;;;5073534;28;20467;-62
2021/09/14 07:30:18;;;;;;;4.80;3.10;;;18.50;99.90;;;;;;5072916;28;20473;-63
2021/09/14 07:32:45;;;;;;;4.90;3.27;;;18.50;99.90;;;;;;5073181;28;20527;-65
2021/09/14 07:35:12;;;;;;;9.70;4.30;;;18.60;99.90;;;;;;5072894;28;20462;-64
2021/09/14 07:37:39;;;;;;;4.50;4.00;;;18.70;99.90;;;;;;5073402;28;20466;-63
2021/09/14 07:40:07;;;;;;;6.13;3.67;;;18.70;99.90;;;;;;5072707;28;20466;-64
2021/09/14 07:42:35;;;;;;;8.23;5.43;;;18.80;99.90;;;;;;5073324;28;20470;-63
2021/09/14 07:45:02;;;;;;;11.10;6.20;;;18.80;99.90;;;;;;5073227;28;20484;-63
2021/09/14 07:47:29;;;;;;;5.80;3.90;;;18.80;99.90;;;;;;5072980;28;21229;-64
2021/09/14 07:49:56;;;;;;;7.37;4.07;;;18.90;99.90;;;;;;5073084;28;20494;-64
2021/09/14 07:52:22;;;;;;;3.63;3.17;;;19.00;99.90;;;;;;5072521;28;20960;-64
2021/09/14 07:54:49;;;;;;;5.90;3.97;;;19.00;99.90;;;;;;5073074;28;20542;-64
2021/09/14 07:57:16;;;;;;;9.60;4.30;;;19.10;99.90;;;;;;5072537;28;20466;-64
2021/09/14 07:59:44;;;;;;;6.57;4.53;;;19.20;99.90;;;;;;5073067;28;20488;-64
2021/09/14 08:02:11;;;;;;;4.17;3.77;;;19.20;99.90;;;;;;5072473;28;20816;-64
2021/09/14 08:04:38;;;;;;;7.47;4.60;;;19.20;99.90;;;;;;5072810;28;20459;-64
2021/09/14 08:07:05;;;;;;;15.40;5.50;;;19.30;99.90;;;;;;5072684;28;20458;-64
2021/09/14 08:09:32;;;;;;;12.07;3.93;;;19.30;99.90;;;;;;5072376;28;20458;-63
2021/09/14 08:12:00;;;;;;;7.53;3.90;;;19.40;99.90;;;;;;5072800;28;20537;-64
2021/09/14 08:14:27;;;;;;;4.10;3.70;;;19.40;99.90;;;;;;5072462;28;20567;-64
2021/09/14 08:16:56;;;;;;;5.90;4.90;;;19.50;99.90;;;;;;5072814;28;20466;-64
2021/09/14 08:19:22;;;;;;;8.40;5.33;;;19.50;99.90;;;;;;5072255;28;20466;-64
2021/09/14 08:21:49;;;;;;;8.73;3.83;;;19.60;99.90;;;;;;5072825;28;20466;-64
2021/09/14 08:24:17;;;;;;;6.40;3.77;;;19.60;99.90;;;;;;5072091;28;20462;-64
2021/09/14 08:26:44;;;;;;;10.03;4.40;;;19.70;99.90;;;;;;5072776;28;20464;-64
2021/09/14 08:29:11;;;;;;;6.83;4.00;;;19.80;99.90;;;;;;5072054;28;20473;-64
2021/09/14 08:31:38;;;;;;;6.70;3.53;;;19.80;99.90;;;;;;5072344;28;20469;-64
2021/09/14 08:34:08;;;;;;;8.70;3.93;;;19.90;99.90;;;;;;5072711;28;20484;-64
2021/09/14 08:36:35;;;;;;;4.63;3.47;;;19.90;99.90;;;;;;5072124;28;20528;-64
2021/09/14 08:39:02;;;;;;;3.93;3.50;;;19.90;99.90;;;;;;5072443;28;20471;-63
2021/09/14 08:41:29;;;;;;;6.53;3.70;;;20.00;99.90;;;;;;5072196;28;20469;-63
2021/09/14 08:43:56;;;;;;;3.90;3.13;;;20.10;99.90;;;;;;5072634;28;20462;-63
2021/09/14 08:46:24;;;;;;;3.57;3.13;;;20.10;99.90;;;;;;5072077;28;20488;-64
2021/09/14 08:48:52;;;;;;;3.90;3.10;;;20.10;99.90;;;;;;5072602;28;20474;-63
2021/09/14 08:51:21;;;;;;;7.80;4.23;;;20.10;99.90;;;;;;5071963;28;20463;-63
2021/09/14 08:53:48;;;;;;;7.90;3.53;;;20.10;99.90;;;;;;5072339;28;20817;-63
2021/09/14 08:56:15;;;;;;;4.53;3.50;;;20.10;99.90;;;;;;5072164;28;20476;-64
2021/09/14 08:58:42;;;;;;;3.97;3.30;;;20.10;99.90;;;;;;5072393;28;20467;-64
2021/09/14 09:01:10;;;;;;;3.47;3.17;;;20.10;99.90;;;;;;5072218;28;20476;-64
2021/09/14 09:03:38;;;;;;;5.63;3.77;;;20.20;99.90;;;;;;5072028;28;20551;-64
2021/09/14 09:06:05;;;;;;;4.90;3.53;;;20.20;99.90;;;;;;5072123;28;20541;-63
2021/09/14 09:08:34;;;;;;;6.13;3.73;;;20.20;99.90;;;;;;5071851;28;20466;-63
2021/09/14 09:11:04;;;;;;;4.20;3.47;;;20.30;99.90;;;;;;5072441;28;20548;-63
2021/09/14 09:13:32;;;;;;;3.27;2.80;;;20.30;99.90;;;;;;5071574;28;20583;-64
2021/09/14 09:15:59;;;;;;;3.97;3.57;;;20.40;99.90;;;;;;5072348;28;20462;-64
2021/09/14 09:18:25;;;;;;;4.47;4.07;;;20.40;99.90;;;;;;5072294;28;20481;-64
2021/09/14 09:20:54;;;;;;;4.80;3.90;;;20.40;99.90;;;;;;5074786;28;20470;-64
2021/09/14 09:23:24;;;;;;;3.50;3.10;;;20.50;99.90;;;;;;5055329;28;20459;-63
2021/09/14 09:25:52;;;;;;;4.37;3.13;;;20.50;99.90;;;;;;5055990;28;20459;-64
2021/09/14 09:28:22;;;;;;;3.43;3.13;;;20.60;99.90;;;;;;5055194;28;20467;-65
2021/09/14 09:30:54;;;;;;;5.30;3.77;;;20.70;99.80;;;;;;5055845;28;20546;-64
2021/09/14 09:33:24;;;;;;;4.40;3.70;;;20.70;99.90;;;;;;5055197;28;20556;-64
2021/09/14 09:35:51;;;;;;;4.03;3.63;;;20.80;99.80;;;;;;5055717;28;20463;-64
2021/09/14 09:38:18;;;;;;;4.07;3.40;;;20.90;99.80;;;;;;5068283;28;20462;-63
2021/09/14 09:40:45;;;;;;;5.60;2.90;;;20.90;99.80;;;;;;5075864;28;20458;-63
2021/09/14 09:43:13;;;;;;;6.50;4.30;;;21.00;99.60;;;;;;5075484;28;20458;-63
2021/09/14 09:45:45;;;;;;;5.27;3.10;;;21.00;99.10;;;;;;5074992;28;20481;-63
2021/09/14 09:48:12;;;;;;;5.13;3.20;;;21.00;99.00;;;;;;5075530;28;20480;-63
2021/09/14 09:50:40;;;;;;;3.70;3.10;;;21.00;99.10;;;;;;5074828;28;20464;-63
2021/09/14 09:53:08;;;;;;;6.80;3.20;;;21.00;99.10;;;;;;5075232;28;20464;-63
2021/09/14 09:55:35;;;;;;;3.30;3.10;;;21.00;98.90;;;;;;5075067;28;20816;-63
2021/09/14 09:58:04;;;;;;;3.43;3.13;;;21.00;99.00;;;;;;5075086;28;20462;-63
2021/09/14 10:00:37;;;;;;;5.13;3.17;;;21.00;99.10;;;;;;5074701;28;20466;-63
2021/09/14 10:03:07;;;;;;;4.17;3.43;;;21.00;98.90;;;;;;5075242;28;20462;-64
2021/09/14 10:05:37;;;;;;;3.83;3.30;;;21.10;99.00;;;;;;5074688;28;20469;-64
2021/09/14 10:08:08;;;;;;;5.70;3.23;;;21.10;98.80;;;;;;5074989;28;20854;-64
2021/09/14 10:10:36;;;;;;;4.00;3.70;;;21.10;99.00;;;;;;5074654;28;20474;-64
2021/09/14 10:13:04;;;;;;;6.60;5.10;;;21.20;99.00;;;;;;5074933;28;20473;-64
2021/09/14 10:15:40;;;;;;;6.90;5.37;;;21.30;99.10;;;;;;5074556;28;20537;-63
2021/09/14 10:18:07;;;;;;;8.47;3.30;;;21.30;99.00;;;;;;5074642;28;20476;-64
2021/09/14 10:20:39;;;;;;;4.93;3.60;;;21.40;98.70;;;;;;5074002;28;20538;-64
2021/09/14 10:23:08;;;;;;;3.80;3.40;;;21.40;98.50;;;;;;5065265;28;20475;-63
2021/09/14 10:25:36;;;;;;;3.73;3.43;;;21.50;98.50;;;;;;5064816;28;20480;-64
2021/09/14 10:28:08;;;;;;;5.83;4.60;;;21.50;98.40;;;;;;5074418;28;20546;-64
2021/09/14 10:30:35;;;;;;;4.27;3.70;;;21.50;98.20;;;;;;5073915;28;20474;-64
2021/09/14 10:33:05;;;;;;;4.03;3.20;;;21.60;98.30;;;;;;5074184;28;20559;-64
2021/09/14 10:35:34;;;;;;;5.17;3.70;;;21.60;98.30;;;;;;5073778;28;20466;-64
2021/09/14 10:38:09;;;;;;;3.33;3.10;;;21.60;98.10;;;;;;5074224;28;20501;-64
2021/09/14 10:40:41;;;;;;;4.37;3.97;;;21.60;98.20;;;;;;5073806;28;20524;-64
2021/09/14 10:43:08;;;;;;;5.80;4.00;;;21.70;98.30;;;;;;5074216;28;20469;-64
2021/09/14 10:45:43;;;;;;;7.13;4.30;;;21.80;98.00;;;;;;5073832;28;20470;-64
2021/09/14 10:48:26;;;;;;;3.50;3.20;;;21.80;97.50;;;;;;5074237;28;20478;-64
2021/09/14 10:50:53;;;;;;;3.17;2.97;;;21.80;97.30;;;;;;5073653;28;20442;-64
2021/09/14 10:53:30;;;;;;;5.23;4.67;;;21.90;97.30;;;;;;5074046;28;20553;-64
2021/09/14 10:55:59;;;;;;;4.57;4.00;;;21.90;97.20;;;;;;5073430;28;20849;-64
2021/09/14 10:58:27;;;;;;;4.33;3.40;;;21.90;97.10;;;;;;5073980;28;20880;-63
2021/09/14 11:00:55;;;;;;;4.53;3.60;;;21.90;97.00;;;;;;5073592;28;20458;-63
2021/09/14 11:03:23;;;;;;;4.03;3.73;;;21.90;97.00;;;;;;5073797;28;20458;-64
2021/09/14 11:05:53;;;;;;;5.07;4.67;;;22.00;97.10;;;;;;5073540;28;20974;-64
2021/09/14 11:08:24;;;;;;;6.20;4.40;;;22.00;97.10;;;;;;5073640;28;21168;-64
2021/09/14 11:10:57;;;;;;;3.80;3.50;;;22.00;96.70;;;;;;5073369;28;20463;-64
2021/09/14 11:13:26;;;;;;;5.90;3.70;;;22.00;96.80;;;;;;5073550;28;20488;-64
2021/09/14 11:15:58;;;;;;;3.90;3.57;;;22.00;96.70;;;;;;5073314;28;20471;-64
2021/09/14 11:18:29;;;;;;;4.50;4.20;;;21.90;96.70;;;;;;5073431;28;20501;-64
2021/09/14 11:21:03;;;;;;;4.60;4.20;;;22.00;96.90;;;;;;5069753;28;20467;-64
2021/09/14 11:23:30;;;;;;;5.40;3.90;;;22.00;96.80;;;;;;5068943;28;20531;-64
2021/09/14 11:25:58;;;;;;;4.67;3.77;;;22.00;96.60;;;;;;5068924;28;20465;-64
2021/09/14 11:28:25;;;;;;;4.20;3.90;;;22.00;96.80;;;;;;5073178;28;20476;-64
2021/09/14 11:30:57;;;;;;;7.13;5.47;;;22.00;97.00;;;;;;5062546;28;20476;-64
2021/09/14 11:33:27;;;;;;;5.90;3.80;;;22.00;97.40;;;;;;5070093;28;20470;-64
2021/09/14 11:35:55;;;;;;;5.70;3.67;;;22.10;97.20;;;;;;5070089;28;20964;-64
2021/09/14 11:38:23;;;;;;;3.80;3.47;;;22.10;96.60;;;;;;5070434;28;20466;-64
2021/09/14 11:40:51;;;;;;;10.77;4.40;;;22.10;97.00;;;;;;5069739;28;20493;-64
2021/09/14 11:43:20;;;;;;;9.43;4.20;;;22.10;96.50;;;;;;5069802;28;20468;-64
2021/09/14 11:45:47;;;;;;;5.93;3.80;;;22.10;96.40;;;;;;5070725;28;20505;-64
2021/09/14 11:48:21;;;;;;;4.27;3.87;;;22.20;96.30;;;;;;5072791;28;21026;-63
2021/09/14 11:51:01;;;;;;;3.70;3.40;;;22.30;96.20;;;;;;5072133;28;20480;-64
2021/09/14 11:53:28;;;;;;;4.10;3.77;;;22.40;96.30;;;;;;5072772;28;20469;-64
2021/09/14 11:55:54;;;;;;;3.57;3.27;;;22.40;96.20;;;;;;5072622;28;20462;-64
2021/09/14 11:58:30;;;;;;;4.97;4.03;;;22.50;96.00;;;;;;5072594;28;20474;-64
2021/09/14 12:01:00;;;;;;;4.67;4.00;;;22.50;95.90;;;;;;5072237;28;20457;-64
2021/09/14 12:03:36;;;;;;;5.43;3.70;;;22.50;95.80;;;;;;5072403;28;20802;-64
2021/09/14 12:06:05;;;;;;;4.80;4.40;;;22.50;95.50;;;;;;5072356;28;20457;-64
2021/09/14 12:08:33;;;;;;;10.10;4.17;;;22.60;95.80;;;;;;5072614;28;20784;-64
2021/09/14 12:11:01;;;;;;;3.87;3.57;;;22.60;95.80;;;;;;5072131;28;20477;-64
2021/09/14 12:13:36;;;;;;;5.40;4.30;;;22.60;95.70;;;;;;5072789;28;20477;-64
2021/09/14 12:16:08;;;;;;;4.90;3.93;;;22.70;95.60;;;;;;5072277;28;20480;-64
2021/09/14 12:18:35;;;;;;;4.53;4.23;;;22.70;95.50;;;;;;5072389;28;20874;-64
2021/09/14 12:21:03;;;;;;;4.20;3.77;;;22.70;95.40;;;;;;5071888;28;20465;-64
2021/09/14 12:23:31;;;;;;;7.10;4.40;;;22.80;95.60;;;;;;5072552;28;20472;-62
2021/09/14 12:25:58;;;;;;;6.17;5.67;;;22.80;95.20;;;;;;5070245;28;20516;-64
2021/09/14 12:28:24;;;;;;;7.10;6.50;;;22.90;95.70;;;;;;5061315;28;20466;-64
2021/09/14 12:30:51;;;;;;;5.63;5.23;;;22.90;95.80;;;;;;5071987;28;20490;-63
2021/09/14 12:33:18;;;;;;;6.43;5.83;;;23.00;96.10;;;;;;5072204;28;20478;-64
2021/09/14 12:35:46;;;;;;;5.60;5.20;;;23.00;95.90;;;;;;5071735;28;20489;-63
2021/09/14 12:38:14;;;;;;;5.20;4.20;;;23.10;95.50;;;;;;5072516;28;20462;-63
2021/09/14 12:40:41;;;;;;;4.93;4.47;;;23.10;95.00;;;;;;5071873;28;20476;-64
2021/09/14 12:43:07;;;;;;;6.80;4.10;;;23.20;95.10;;;;;;5071487;28;20982;-63
2021/09/14 12:45:34;;;;;;;5.60;4.00;;;23.10;94.70;;;;;;5072242;28;20470;-64
2021/09/14 12:48:02;;;;;;;6.50;5.03;;;23.10;94.80;;;;;;5071828;28;20928;-63
2021/09/14 12:50:29;;;;;;;5.83;5.23;;;23.10;95.00;;;;;;5071976;28;20489;-63
2021/09/14 12:52:55;;;;;;;5.60;5.13;;;23.10;94.90;;;;;;5072022;28;20474;-64
2021/09/14 12:55:25;;;;;;;8.47;7.77;;;23.10;95.00;;;;;;5076198;28;20460;-63
2021/09/14 12:57:52;;;;;;;7.90;7.20;;;23.10;95.10;;;;;;5076102;28;21112;-64
2021/09/14 13:00:19;;;;;;;8.87;7.63;;;23.20;95.20;;;;;;5076273;28;20473;-64
2021/09/14 13:02:46;;;;;;;5.00;4.60;;;23.20;95.50;;;;;;5075920;28;20470;-63
2021/09/14 13:05:13;;;;;;;8.33;7.30;;;23.30;94.80;;;;;;5076264;28;20469;-64
2021/09/14 13:07:39;;;;;;;14.43;12.93;;;23.20;94.90;;;;;;5076215;28;20493;-63
2021/09/14 13:10:09;;;;;;;7.93;6.03;;;23.30;95.30;;;;;;5075603;28;20952;-64
2021/09/14 13:12:37;;;;;;;4.80;4.40;;;23.30;94.70;;;;;;5076293;28;20559;-63
2021/09/14 13:17:49;;;;;;;5.00;4.60;;;23.30;94.20;;;;;;5075627;28;21193;-64
2021/09/14 13:20:16;;;;;;;5.67;4.50;;;23.30;94.60;;;;;;5075660;28;20462;-64
2021/09/14 13:22:43;;;;;;;8.57;6.20;;;23.20;94.30;;;;;;5076025;28;20982;-64
2021/09/14 13:25:11;;;;;;;8.37;7.70;;;23.20;94.30;;;;;;5075452;28;20454;-64
2021/09/14 13:27:39;;;;;;;8.17;7.40;;;23.20;94.60;;;;;;5075885;28;20527;-63
2021/09/14 13:30:07;;;;;;;7.03;6.40;;;23.20;94.90;;;;;;5075256;28;20484;-64
2021/09/14 13:32:34;;;;;;;5.60;4.87;;;23.20;94.50;;;;;;5075548;28;20545;-64
2021/09/14 13:35:01;;;;;;;5.60;5.10;;;23.20;94.40;;;;;;5075363;28;20479;-64
2021/09/14 13:37:28;;;;;;;5.93;5.33;;;23.10;94.20;;;;;;5075481;28;20470;-64